Holloman Air Force Base, New Mexico
Current Conditions -  °F | °C
As of 6:55 PM on Saturday 20 Dec 2014 (Local Time) from KALM Reporting Station
Clear Clear  
Wind Chill: 34°   Ceiling: Unl
Heat Index: 39°   Visibility: 10mi
Dew Point: 25°   Wind: 7mph
Humidity: 56%   Direction: 30°NNE
Pressure: 30.1"   Gusts: NA
Location:  32.8635°N, 106.0004°W
Report Text: KALM 210155Z AUTO 03006KT 10SM CLR 04/M04 A3010 RMK AO2
Loading
Personal Weather Stations






























Interactive Weather Map New forecast layout! Learn more

10-Day Weather Forecast

Advertisements
Track Severe Weather on mobile